LFMH/EBU METAR and TAF weather

Enter ICAO airport designator
Station Type Date Time Source
LFMH METAR 2020/03/28 14:30 UTC NOAA

LFMH 281430Z AUTO 34007KT 300V020 CAVOK 16/02 Q1016


Station Type Date Time Source
LFMH Decoded METAR 2020/03/28 14:30 UTC NOAA

St-Etienne Boutheon, France (LFMH) 45-32N 004-18E 402M
Mar 28, 2020 - 10:30 AM EDT / 2020.03.28 1430 UTC
Wind: from the NNW (340 degrees) at 8 MPH (7 KT) (direction variable):0
Visibility: greater than 7 mile(s):0
Temperature: 60 F (16 C)
Dew Point: 35 F (2 C)
Relative Humidity: 38%
Pressure (altimeter): 30.00 in. Hg (1016 hPa)
ob: LFMH 281430Z AUTO 34007KT 300V020 CAVOK 16/02 Q1016
cycle: 14

Station Type Date Time Source
LFMH TAF 2020/03/24 20:53 UTC NOAA

TAF LFMH 241400Z 2420/2515 CNL

Example: see airport list